Time;durP1;ratioP1;P1;durP2;ratioP2;P2;SDS_P1;SDS_P2;PMS_P1;PMS_P2;Temp;Humidity;BMP_temperature;BMP_pressure;BME280_temperature;BME280_humidity;BME280_pressure;Samples;Min_cycle;Max_cycle;Signal;HPM_P1;HPM_P2
2022/07/25 00:00:49;;;;;;;6.45;5.55;;;;;;;22.91;67.47;100883.75;4731808;30;20318;-73
2022/07/25 00:03:15;;;;;;;10.07;6.07;;;;;;;22.89;67.51;100871.38;4733394;30;20044;-73
2022/07/25 00:05:40;;;;;;;7.95;5.43;;;;;;;22.82;67.48;100866.28;4733172;30;20044;-73
2022/07/25 00:08:05;;;;;;;6.93;5.85;;;;;;;22.87;67.34;100868.13;4733219;30;20166;-73
2022/07/25 00:10:30;;;;;;;9.50;6.05;;;;;;;22.84;67.54;100861.25;4734185;30;20028;-73
2022/07/25 00:12:56;;;;;;;6.65;5.30;;;;;;;22.81;67.02;100854.44;4733657;30;20126;-73
2022/07/25 00:15:21;;;;;;;8.07;5.90;;;;;;;22.80;67.10;100855.56;4725803;30;20463;-73
2022/07/25 00:17:47;;;;;;;6.43;5.65;;;;;;;22.82;66.76;100855.25;4728584;30;20157;-73
2022/07/25 00:20:12;;;;;;;7.55;5.78;;;;;;;22.75;66.35;100852.91;4734081;30;20040;-73
2022/07/25 00:22:37;;;;;;;6.65;5.93;;;;;;;22.82;66.64;100845.03;4736603;30;20034;-73
2022/07/25 00:25:03;;;;;;;6.80;5.30;;;;;;;22.71;66.81;100851.09;4731282;30;20540;-73
2022/07/25 00:27:28;;;;;;;8.85;5.55;;;;;;;22.75;66.62;100847.41;4730269;30;20114;-73
2022/07/25 00:29:53;;;;;;;8.15;6.32;;;;;;;22.70;66.73;100839.22;4737184;30;20036;-73
2022/07/25 00:32:19;;;;;;;6.45;5.85;;;;;;;22.71;67.12;100835.34;4737039;30;20373;-72
2022/07/25 00:34:44;;;;;;;7.57;5.78;;;;;;;22.73;66.53;100835.84;4733651;30;20036;-73
2022/07/25 00:37:09;;;;;;;9.85;5.45;;;;;;;22.71;66.53;100832.59;4726410;30;20036;-73
2022/07/25 00:39:35;;;;;;;6.18;5.57;;;;;;;22.66;66.95;100832.66;4737280;30;20060;-73
2022/07/25 00:42:00;;;;;;;9.77;6.00;;;;;;;22.57;66.60;100826.25;4737060;30;20484;-73
2022/07/25 00:44:28;;;;;;;6.25;5.60;;;;;;;22.63;66.47;100819.50;4736376;30;20082;-73
2022/07/25 00:46:54;;;;;;;8.15;5.70;;;;;;;22.66;65.67;100821.63;4723815;30;20047;-73
2022/07/25 00:49:20;;;;;;;6.45;5.80;;;;;;;22.64;66.18;100815.63;4737072;30;20032;-73
2022/07/25 00:51:45;;;;;;;8.00;5.15;;;;;;;22.61;65.89;100808.78;4736797;30;20087;-73
2022/07/25 00:54:11;;;;;;;7.63;5.13;;;;;;;22.62;65.85;100809.59;4736987;30;20050;-73
2022/07/25 00:56:37;;;;;;;7.90;5.28;;;;;;;22.58;65.16;100814.09;4723199;30;20037;-73
2022/07/25 00:59:03;;;;;;;7.82;5.55;;;;;;;22.60;65.52;100809.06;4736457;30;20036;-72
2022/07/25 01:01:28;;;;;;;6.00;5.28;;;;;;;22.63;65.25;100808.47;4733421;30;20060;-72
2022/07/25 01:03:53;;;;;;;9.23;5.63;;;;;;;22.61;65.23;100805.22;4736613;30;20363;-72
2022/07/25 01:06:19;;;;;;;8.52;5.20;;;;;;;22.62;64.98;100801.34;4735043;30;20067;-72
2022/07/25 01:08:45;;;;;;;8.85;5.85;;;;;;;22.68;64.59;100800.09;4735900;30;20483;-72
2022/07/25 01:11:11;;;;;;;6.28;5.25;;;;;;;22.65;65.14;100797.97;4736623;30;20056;-73
2022/07/25 01:13:36;;;;;;;8.10;5.13;;;;;;;22.54;64.31;100780.81;4734713;30;20120;-73
2022/07/25 01:16:01;;;;;;;7.32;5.40;;;;;;;22.62;65.13;100782.03;4724886;30;20068;-72
2022/07/25 01:18:27;;;;;;;6.80;5.30;;;;;;;22.63;64.58;100778.13;4733819;30;20465;-72
2022/07/25 01:20:52;;;;;;;8.45;5.25;;;;;;;22.59;64.72;100777.13;4720511;30;20032;-73
2022/07/25 01:23:17;;;;;;;7.10;5.60;;;;;;;22.55;65.75;100773.34;4736358;30;20041;-73
2022/07/25 01:25:43;;;;;;;5.60;5.03;;;;;;;22.56;65.48;100767.53;4720455;30;20044;-73
2022/07/25 01:28:08;;;;;;;6.90;4.97;;;;;;;22.52;64.75;100766.50;4731065;30;20037;-72
2022/07/25 01:30:33;;;;;;;7.07;5.45;;;;;;;22.52;65.08;100765.69;4736071;30;20040;-73
2022/07/25 01:32:59;;;;;;;6.25;4.93;;;;;;;22.45;64.20;100761.41;4735268;30;20071;-72
2022/07/25 01:35:24;;;;;;;6.85;5.20;;;;;;;22.44;64.90;100756.19;4721272;30;20103;-73
2022/07/25 01:37:49;;;;;;;6.35;4.90;;;;;;;22.51;64.37;100758.53;4728777;30;20033;-73
2022/07/25 01:40:15;;;;;;;6.40;5.40;;;;;;;22.46;63.72;100756.69;4736166;30;20035;-73
2022/07/25 01:42:41;;;;;;;8.05;5.20;;;;;;;22.45;64.61;100761.41;4736046;30;20068;-73
2022/07/25 01:45:07;;;;;;;7.28;5.07;;;;;;;22.46;64.98;100753.94;4723195;30;20034;-73
2022/07/25 01:47:32;;;;;;;7.43;5.07;;;;;;;22.45;64.64;100755.91;4726688;30;20110;-73
2022/07/25 01:49:57;;;;;;;8.60;5.00;;;;;;;22.46;64.71;100746.50;4720080;30;20032;-73
2022/07/25 01:52:22;;;;;;;6.95;5.05;;;;;;;22.50;62.92;100751.41;4735924;30;20029;-72
2022/07/25 01:54:48;;;;;;;5.20;4.70;;;;;;;22.44;63.71;100742.41;4725637;30;20041;-72
2022/07/25 01:57:14;;;;;;;6.22;5.20;;;;;;;22.38;63.50;100732.63;4723623;30;20028;-72
2022/07/25 01:59:40;;;;;;;6.38;5.25;;;;;;;22.40;63.83;100733.94;4736057;30;20440;-73
2022/07/25 02:02:09;;;;;;;6.25;5.03;;;;;;;22.35;64.16;100731.28;4732111;30;20540;-72
2022/07/25 02:04:35;;;;;;;6.95;4.90;;;;;;;22.38;64.06;100729.88;4734757;30;20033;-72
2022/07/25 02:07:00;;;;;;;10.20;5.32;;;;;;;22.34;63.46;100715.88;4734598;30;20045;-73
2022/07/25 02:09:26;;;;;;;10.18;5.05;;;;;;;22.37;64.19;100720.75;4735625;30;20075;-72
2022/07/25 02:11:51;;;;;;;6.80;5.00;;;;;;;22.42;63.44;100720.66;4735187;30;20458;-72
2022/07/25 02:14:16;;;;;;;8.77;5.25;;;;;;;22.40;63.80;100720.13;4731358;30;20082;-73
2022/07/25 02:16:42;;;;;;;8.63;4.97;;;;;;;22.45;63.62;100720.06;4727686;30;20029;-73
2022/07/25 02:19:07;;;;;;;7.65;5.20;;;;;;;22.42;63.70;100715.16;4720160;30;20041;-73
2022/07/25 02:21:33;;;;;;;10.93;5.38;;;;;;;22.42;63.36;100717.06;4725279;30;20475;-73
2022/07/25 02:23:58;;;;;;;9.23;5.15;;;;;;;22.39;63.78;100713.03;4727696;30;20531;-73
2022/07/25 02:26:23;;;;;;;7.50;5.03;;;;;;;22.33;63.00;100716.16;4721109;30;20102;-75
2022/07/25 02:28:49;;;;;;;7.13;4.80;;;;;;;22.39;62.25;100718.53;4732921;30;20032;-75
2022/07/25 02:31:39;;;;;;;6.25;5.65;;;;;;;22.33;62.27;100716.16;4735289;30;20036;-80
2022/07/25 02:34:04;;;;;;;7.63;5.05;;;;;;;22.34;63.06;100704.84;4720127;30;20029;-72
2022/07/25 02:36:29;;;;;;;7.97;5.40;;;;;;;22.36;63.37;100707.28;4733802;30;20039;-75
2022/07/25 02:38:55;;;;;;;6.22;5.25;;;;;;;22.37;62.33;100703.41;4717506;30;20039;-72
2022/07/25 02:41:20;;;;;;;7.72;5.10;;;;;;;22.30;62.16;100699.09;4717474;30;20122;-73
2022/07/25 02:43:45;;;;;;;6.65;4.88;;;;;;;22.34;62.03;100699.31;4716782;30;20044;-74
2022/07/25 02:46:11;;;;;;;7.85;5.03;;;;;;;22.34;61.93;100693.81;4719927;30;20346;-73
2022/07/25 02:48:36;;;;;;;8.30;5.63;;;;;;;22.32;62.50;100687.81;4735322;30;20496;-73
2022/07/25 02:51:01;;;;;;;5.63;4.85;;;;;;;22.28;62.64;100686.75;4734540;30;20033;-72
2022/07/25 02:53:27;;;;;;;6.53;5.10;;;;;;;22.27;62.31;100691.44;4719142;30;20365;-73
2022/07/25 02:55:52;;;;;;;6.70;5.05;;;;;;;22.24;61.49;100683.00;4732818;30;20052;-73
2022/07/25 02:58:17;;;;;;;8.02;5.35;;;;;;;22.29;62.08;100693.91;4734890;30;20040;-73
2022/07/25 03:00:43;;;;;;;6.50;5.10;;;;;;;22.28;61.71;100686.75;4732273;30;20534;-72
2022/07/25 03:03:08;;;;;;;7.75;5.63;;;;;;;22.24;62.13;100688.50;4733619;30;20052;-73
2022/07/25 03:05:34;;;;;;;10.23;5.47;;;;;;;22.27;61.04;100685.13;4707631;30;20702;-73
2022/07/25 03:08:00;;;;;;;6.25;4.97;;;;;;;22.26;62.67;100680.75;4716227;30;20042;-73
2022/07/25 03:10:26;;;;;;;6.75;4.85;;;;;;;22.19;61.69;100667.34;4734454;30;20024;-73
2022/07/25 03:12:51;;;;;;;5.80;5.00;;;;;;;22.15;62.48;100666.34;4734502;30;20457;-73
2022/07/25 03:15:16;;;;;;;7.80;5.60;;;;;;;22.11;62.12;100660.63;4722784;30;20079;-73
2022/07/25 03:17:42;;;;;;;5.40;4.90;;;;;;;22.11;61.87;100657.88;4701013;30;20072;-73
2022/07/25 03:20:14;;;;;;;6.97;5.20;;;;;;;22.13;62.41;100658.41;4715765;30;20033;-73
2022/07/25 03:22:48;;;;;;;7.50;5.40;;;;;;;22.12;61.94;100655.97;4715276;30;20056;-73
2022/07/25 03:25:23;;;;;;;7.63;5.30;;;;;;;22.07;61.96;100656.03;4715703;30;20126;-72
2022/07/25 03:27:59;;;;;;;8.45;5.60;;;;;;;22.16;60.64;100661.66;4736551;30;20033;-73
2022/07/25 03:30:36;;;;;;;6.13;4.88;;;;;;;22.15;61.47;100662.78;4701010;30;20029;-73
2022/07/25 03:33:17;;;;;;;8.32;5.38;;;;;;;22.15;61.07;100662.78;4700652;30;20486;-73
2022/07/25 03:36:02;;;;;;;5.93;5.32;;;;;;;22.18;60.32;100654.72;4704882;30;20038;-73
2022/07/25 03:38:44;;;;;;;6.50;4.95;;;;;;;22.17;61.23;100657.78;4747194;30;20029;-74
2022/07/25 03:41:23;;;;;;;6.78;5.38;;;;;;;22.17;61.23;100655.03;4747279;30;20060;-73
2022/07/25 03:43:58;;;;;;;7.32;5.22;;;;;;;22.17;60.18;100655.03;4746421;30;20033;-73
2022/07/25 03:46:31;;;;;;;8.85;5.38;;;;;;;22.16;59.97;100661.66;4731861;30;20389;-73
2022/07/25 03:49:05;;;;;;;7.65;5.75;;;;;;;22.12;60.30;100659.50;4718153;30;20351;-74
2022/07/25 03:51:39;;;;;;;13.13;5.50;;;;;;;22.08;60.20;100658.50;4718085;30;20441;-74
2022/07/25 03:54:14;;;;;;;6.88;5.07;;;;;;;22.05;61.36;100655.53;4704648;30;20091;-73
2022/07/25 03:56:47;;;;;;;9.48;5.32;;;;;;;22.04;60.97;100656.66;4717154;30;20036;-73
2022/07/25 03:59:22;;;;;;;7.05;5.30;;;;;;;21.97;61.04;100657.09;4718789;30;20029;-74
2022/07/25 04:02:00;;;;;;;9.73;5.53;;;;;;;21.95;60.73;100637.28;4717116;30;20063;-74
2022/07/25 04:04:37;;;;;;;8.15;5.63;;;;;;;21.97;60.73;100645.22;4720291;30;20068;-74
2022/07/25 04:07:13;;;;;;;8.63;5.70;;;;;;;21.91;60.99;100642.59;4750701;30;20040;-73
2022/07/25 04:09:45;;;;;;;7.45;5.20;;;;;;;21.93;61.15;100634.81;4750897;30;20040;-74
2022/07/25 04:12:19;;;;;;;8.20;5.28;;;;;;;21.89;61.83;100644.00;4750595;30;20036;-74
2022/07/25 04:14:53;;;;;;;9.95;6.13;;;;;;;21.86;61.36;100639.13;4747627;30;20104;-73
2022/07/25 04:17:28;;;;;;;7.97;5.45;;;;;;;21.84;61.87;100644.13;4750745;30;20060;-73
2022/07/25 04:20:04;;;;;;;7.03;5.85;;;;;;;21.79;61.73;100634.03;4750468;30;20087;-73
2022/07/25 04:22:44;;;;;;;7.53;5.60;;;;;;;21.83;61.75;100642.47;4749191;30;20405;-73
2022/07/25 04:25:20;;;;;;;10.50;5.90;;;;;;;21.80;61.64;100634.84;4720410;30;20071;-74
2022/07/25 04:27:55;;;;;;;6.72;5.03;;;;;;;21.82;61.55;100638.91;4735713;30;20385;-74
2022/07/25 04:30:29;;;;;;;8.98;5.47;;;;;;;21.78;62.95;100635.13;4735955;30;20098;-74
2022/07/25 04:33:03;;;;;;;9.25;5.68;;;;;;;21.80;61.58;100637.59;4733663;30;20040;-74
2022/07/25 04:35:36;;;;;;;7.80;5.75;;;;;;;21.77;61.46;100636.28;4750485;30;20030;-74
2022/07/25 04:38:10;;;;;;;8.18;5.53;;;;;;;21.74;62.43;100639.63;4750045;30;20040;-74
2022/07/25 04:40:45;;;;;;;6.28;5.20;;;;;;;21.75;61.66;100638.50;4750382;30;20475;-75
2022/07/25 04:43:18;;;;;;;6.18;5.50;;;;;;;21.74;62.03;100636.88;4741986;30;20033;-74
2022/07/25 04:45:52;;;;;;;14.55;5.78;;;;;;;21.72;62.09;100639.13;4718019;30;20032;-75
2022/07/25 04:48:25;;;;;;;9.10;5.55;;;;;;;21.70;62.25;100638.63;4717868;30;20043;-75
2022/07/25 04:50:57;;;;;;;5.82;5.22;;;;;;;21.73;62.40;100627.78;4718143;30;20522;-74
2022/07/25 04:53:28;;;;;;;7.97;5.80;;;;;;;21.71;62.76;100626.47;4723261;30;20035;-74
2022/07/25 04:55:56;;;;;;;9.73;6.05;;;;;;;21.70;62.22;100633.91;4735490;30;20032;-74
2022/07/25 04:58:25;;;;;;;10.23;5.47;;;;;;;21.69;62.52;100626.75;4735537;30;20493;-75
2022/07/25 05:00:53;;;;;;;7.05;5.45;;;;;;;21.69;62.66;100635.03;4728676;30;20667;-74
2022/07/25 05:03:22;;;;;;;7.90;5.80;;;;;;;21.69;62.73;100637.78;4715062;30;20028;-75
2022/07/25 05:05:51;;;;;;;12.05;6.28;;;;;;;21.68;62.71;100638.94;4732469;30;20025;-75
2022/07/25 05:08:19;;;;;;;9.77;5.32;;;;;;;21.68;62.91;100638.09;4731075;30;20029;-74
2022/07/25 05:10:46;;;;;;;11.32;5.82;;;;;;;21.70;62.95;100635.88;4736503;30;20033;-75
2022/07/25 05:13:15;;;;;;;7.40;5.85;;;;;;;21.68;62.98;100627.91;4744460;30;20069;-74
2022/07/25 05:15:42;;;;;;;10.82;5.50;;;;;;;21.65;63.47;100634.03;4732667;30;20508;-74
2022/07/25 05:18:10;;;;;;;8.20;5.78;;;;;;;21.71;63.50;100641.06;4732215;30;20032;-74
2022/07/25 05:20:42;;;;;;;8.40;5.93;;;;;;;21.64;63.62;100639.84;4733702;30;20109;-73
2022/07/25 05:23:15;;;;;;;7.25;5.40;;;;;;;21.70;63.70;100642.19;4716503;30;20049;-73
2022/07/25 05:25:49;;;;;;;6.47;5.57;;;;;;;21.68;63.91;100638.09;4731857;30;20037;-73
2022/07/25 05:28:23;;;;;;;7.57;5.72;;;;;;;21.66;63.84;100630.13;4731898;30;20041;-74
2022/07/25 05:30:58;;;;;;;8.85;6.13;;;;;;;21.67;63.79;100642.78;4737358;30;20036;-74
2022/07/25 05:33:32;;;;;;;13.38;6.32;;;;;;;21.66;64.18;100648.59;4746054;30;20029;-74
2022/07/25 05:36:07;;;;;;;9.15;6.40;;;;;;;21.66;64.17;100640.34;4734452;30;20028;-74
2022/07/25 05:38:40;;;;;;;8.52;5.70;;;;;;;21.63;64.63;100640.94;4734575;30;20068;-74
2022/07/25 05:41:15;;;;;;;10.82;6.30;;;;;;;21.67;64.56;100650.25;4732921;30;20037;-73
2022/07/25 05:43:52;;;;;;;9.88;6.45;;;;;;;21.61;64.87;100644.00;4743763;30;20036;-73
2022/07/25 05:46:27;;;;;;;11.57;6.40;;;;;;;21.62;64.82;100644.81;4734239;30;20040;-74
2022/07/25 05:49:01;;;;;;;11.00;6.32;;;;;;;21.61;65.11;100640.44;4734454;30;20563;-74
2022/07/25 05:51:35;;;;;;;7.03;6.22;;;;;;;21.60;64.81;100639.63;4733552;30;20028;-74
2022/07/25 05:54:10;;;;;;;11.25;6.72;;;;;;;21.62;65.05;100645.66;4741313;30;20037;-74
2022/07/25 05:56:46;;;;;;;10.30;6.22;;;;;;;21.62;65.40;100655.84;4733936;30;20059;-74
2022/07/25 05:59:21;;;;;;;13.43;6.38;;;;;;;21.59;65.41;100652.56;4733703;30;20028;-74
2022/07/25 06:01:56;;;;;;;9.40;6.55;;;;;;;21.59;65.56;100660.84;4724240;30;20055;-74
2022/07/25 06:04:29;;;;;;;8.27;6.70;;;;;;;21.57;65.53;100665.84;4707439;30;20179;-74
2022/07/25 06:07:06;;;;;;;9.40;6.30;;;;;;;21.52;65.86;100667.88;4731479;30;20084;-73
2022/07/25 06:09:58;;;;;;;10.35;6.15;;;;;;;21.54;65.52;100669.19;4730054;30;20514;-74
2022/07/25 06:12:43;;;;;;;8.90;6.18;;;;;;;21.56;65.89;100674.41;4741956;30;20045;-75
2022/07/25 06:15:22;;;;;;;10.23;6.47;;;;;;;21.56;64.69;100666.16;4718178;30;20028;-74
2022/07/25 06:17:58;;;;;;;8.90;5.97;;;;;;;21.54;64.50;100671.13;4748686;30;20036;-73
2022/07/25 06:20:32;;;;;;;8.20;6.15;;;;;;;21.47;64.64;100663.25;4724327;30;20036;-73
2022/07/25 06:23:05;;;;;;;8.73;6.25;;;;;;;21.43;64.94;100660.25;4716250;30;20071;-73
2022/07/25 06:25:31;;;;;;;9.32;6.15;;;;;;;21.42;65.54;100660.56;4732535;30;20036;-74
2022/07/25 06:27:57;;;;;;;11.32;5.55;;;;;;;21.45;65.46;100673.72;4729325;30;20113;-73
2022/07/25 06:30:22;;;;;;;9.15;5.93;;;;;;;21.50;65.70;100678.34;4734625;30;20071;-72
2022/07/25 06:32:51;;;;;;;13.07;6.05;;;;;;;21.48;65.11;100678.63;4733358;30;20505;-73
2022/07/25 06:35:18;;;;;;;7.07;5.60;;;;;;;21.48;65.52;100680.56;4707435;30;20029;-72
2022/07/25 06:37:43;;;;;;;6.88;6.00;;;;;;;21.43;65.62;100664.97;4748381;30;20055;-72
2022/07/25 06:40:09;;;;;;;9.30;6.10;;;;;;;21.45;66.18;100673.72;4748414;30;20462;-72
2022/07/25 06:42:39;;;;;;;9.43;6.00;;;;;;;21.45;65.73;100679.22;4734887;30;20366;-73
2022/07/25 06:45:08;;;;;;;11.30;6.38;;;;;;;21.42;66.41;100675.16;4722444;30;20028;-75
2022/07/25 06:47:33;;;;;;;9.18;6.28;;;;;;;21.43;66.48;100678.72;4719298;30;20029;-76
2022/07/25 06:49:59;;;;;;;14.00;6.45;;;;;;;21.46;66.08;100685.56;4735033;30;20102;-79
2022/07/25 06:52:24;;;;;;;7.70;5.80;;;;;;;21.47;66.06;100681.66;4734831;30;20058;-75
2022/07/25 06:54:49;;;;;;;9.68;5.75;;;;;;;21.47;66.29;100681.66;4722627;30;20028;-72
2022/07/25 06:57:15;;;;;;;9.30;6.18;;;;;;;21.43;66.34;100668.50;4735028;30;20526;-73
2022/07/25 06:59:40;;;;;;;9.25;5.88;;;;;;;21.45;66.36;100673.72;4734980;30;20044;-75
2022/07/25 07:02:05;;;;;;;8.35;5.22;;;;;;;21.41;66.94;100673.50;4731189;30;20119;-73
2022/07/25 07:04:30;;;;;;;8.18;5.53;;;;;;;21.41;68.06;100668.00;4722697;30;20043;-73
2022/07/25 07:06:56;;;;;;;8.80;5.10;;;;;;;21.44;67.38;100677.59;4735112;30;20037;-73
2022/07/25 07:09:21;;;;;;;10.70;5.27;;;;;;;21.46;68.17;100674.56;4733613;30;20041;-72
2022/07/25 07:11:46;;;;;;;10.45;5.13;;;;;;;21.50;68.22;100672.84;4734786;30;20329;-73
2022/07/25 07:14:11;;;;;;;7.28;4.80;;;;;;;21.50;68.04;100670.91;4733645;30;20043;-72
2022/07/25 07:16:37;;;;;;;8.23;5.00;;;;;;;21.55;68.41;100676.31;4704666;30;20036;-72
2022/07/25 07:19:02;;;;;;;9.07;4.47;;;;;;;21.58;68.20;100683.16;4725068;30;20388;-72
2022/07/25 07:21:27;;;;;;;9.32;4.28;;;;;;;21.61;68.08;100668.78;4731769;30;20040;-73
2022/07/25 07:23:53;;;;;;;7.97;4.05;;;;;;;21.63;68.73;100668.50;4734431;30;20049;-73
2022/07/25 07:26:18;;;;;;;15.10;4.27;;;;;;;21.67;69.01;100672.28;4718463;30;20525;-74
2022/07/25 07:28:43;;;;;;;10.60;4.97;;;;;;;21.71;68.48;100670.53;4734195;30;20301;-75
2022/07/25 07:31:09;;;;;;;5.35;3.78;;;;;;;21.72;68.74;100666.66;4732541;30;20028;-73
2022/07/25 07:33:36;;;;;;;9.38;3.60;;;;;;;21.77;69.07;100675.66;4715829;30;20458;-72
2022/07/25 07:36:01;;;;;;;8.90;3.35;;;;;;;21.75;69.03;100683.38;4715292;30;20425;-76
2022/07/25 07:38:27;;;;;;;8.23;3.63;;;;;;;21.76;69.23;100682.25;4716797;30;20094;-72
2022/07/25 07:40:53;;;;;;;9.18;3.00;;;;;;;21.75;69.76;100677.88;4721702;30;20033;-71
2022/07/25 07:43:19;;;;;;;6.90;3.10;;;;;;;21.75;70.14;100677.88;4732027;30;20032;-69
2022/07/25 07:45:44;;;;;;;7.00;2.90;;;;;;;21.76;70.29;100679.50;4730970;30;20496;-70
2022/07/25 07:48:10;;;;;;;5.78;2.58;;;;;;;21.77;70.38;100688.59;4729887;30;20110;-70
2022/07/25 07:50:35;;;;;;;5.85;2.22;;;;;;;21.83;70.21;100683.78;4732796;30;20089;-70
2022/07/25 07:53:01;;;;;;;9.63;2.30;;;;;;;21.95;70.90;100681.34;4734317;30;20040;-70
2022/07/25 07:55:46;;;;;;;13.25;2.35;;;;;;;22.10;70.84;100688.50;4734070;30;20079;-70
2022/07/25 07:58:14;;;;;;;5.35;2.22;;;;;;;22.12;69.38;100689.03;4725506;30;20083;-70
2022/07/25 08:00:40;;;;;;;9.02;2.70;;;;;;;22.13;69.70;100685.97;4716941;30;20032;-70
2022/07/25 08:03:07;;;;;;;6.28;2.13;;;;;;;22.19;70.39;100697.66;4733143;30;20083;-70
2022/07/25 08:05:38;;;;;;;8.98;2.60;;;;;;;22.21;70.27;100694.59;4734137;30;20039;-69
2022/07/25 08:08:05;;;;;;;6.95;2.22;;;;;;;22.26;70.69;100697.28;4726611;30;20115;-70
2022/07/25 08:10:33;;;;;;;6.70;1.80;;;;;;;22.21;71.28;100689.94;4723545;30;20437;-70
2022/07/25 08:12:59;;;;;;;7.07;1.95;;;;;;;22.28;71.74;100695.00;4732575;30;20094;-70
2022/07/25 08:15:24;;;;;;;5.00;2.00;;;;;;;22.35;71.79;100700.16;4733944;30;20041;-69
2022/07/25 08:17:50;;;;;;;9.13;2.22;;;;;;;22.41;71.41;100694.22;4732354;30;20124;-70
2022/07/25 08:20:17;;;;;;;6.63;2.13;;;;;;;22.41;71.49;100699.72;4733944;30;20043;-70
2022/07/25 08:22:45;;;;;;;6.97;1.67;;;;;;;22.38;71.20;100694.84;4734107;30;20120;-70
2022/07/25 08:25:16;;;;;;;19.27;2.25;;;;;;;22.37;71.38;100693.19;4732916;30;20040;-70
2022/07/25 08:27:42;;;;;;;6.90;1.95;;;;;;;22.43;71.54;100696.66;4722236;30;20033;-71
2022/07/25 08:30:08;;;;;;;5.50;2.00;;;;;;;22.48;70.83;100702.88;4716636;30;20059;-72
2022/07/25 08:32:44;;;;;;;7.18;1.58;;;;;;;22.35;70.79;100700.16;4731103;30;20028;-69
2022/07/25 08:35:09;;;;;;;7.40;1.83;;;;;;;22.35;70.58;100706.47;4733577;30;20093;-70
2022/07/25 08:37:34;;;;;;;8.60;1.77;;;;;;;22.44;70.82;100709.34;4729431;30;20040;-72
2022/07/25 08:40:00;;;;;;;7.40;1.90;;;;;;;22.51;71.23;100700.63;4733964;30;20040;-71
2022/07/25 08:42:25;;;;;;;3.17;1.60;;;;;;;22.64;70.67;100716.34;4734910;30;20395;-71
2022/07/25 08:44:58;;;;;;;10.55;2.28;;;;;;;22.78;69.78;100708.03;4737017;30;20028;-72
2022/07/25 08:47:23;;;;;;;6.10;1.85;;;;;;;22.84;70.19;100701.25;4727230;30;20044;-70
2022/07/25 08:49:50;;;;;;;6.68;1.70;;;;;;;22.88;69.96;100701.47;4719597;30;20025;-72
2022/07/25 08:52:17;;;;;;;7.70;2.17;;;;;;;22.96;69.74;100700.72;4734365;30;20045;-71
2022/07/25 08:54:44;;;;;;;7.00;1.85;;;;;;;23.13;70.40;100697.28;4737055;30;20029;-71
2022/07/25 08:57:09;;;;;;;7.25;1.85;;;;;;;23.17;69.12;100710.16;4736176;30;20106;-72
2022/07/25 08:59:35;;;;;;;6.85;2.13;;;;;;;23.14;68.90;100705.28;4736667;30;20423;-71
2022/07/25 09:02:02;;;;;;;11.57;1.70;;;;;;;23.13;69.33;100711.91;4725386;30;20059;-72
2022/07/25 09:04:29;;;;;;;5.85;1.85;;;;;;;23.13;69.33;100709.16;4731327;30;20032;-70
2022/07/25 09:06:54;;;;;;;6.45;1.63;;;;;;;23.24;69.53;100709.72;4733574;30;20048;-71
2022/07/25 09:09:29;;;;;;;6.47;1.83;;;;;;;23.21;68.65;100704.81;4731791;30;20131;-70
2022/07/25 09:11:54;;;;;;;5.28;1.95;;;;;;;23.26;69.26;100704.69;4735767;30;20032;-71
2022/07/25 09:14:19;;;;;;;6.05;1.92;;;;;;;23.39;69.66;100707.72;4734587;30;20389;-71
2022/07/25 09:16:45;;;;;;;8.23;2.00;;;;;;;23.42;68.79;100716.19;4734049;30;20031;-71
2022/07/25 09:19:19;;;;;;;8.90;2.22;;;;;;;23.38;68.94;100717.94;4734851;30;20036;-71
2022/07/25 09:21:58;;;;;;;5.75;2.03;;;;;;;23.40;68.70;100725.91;4736573;30;20037;-70
2022/07/25 09:24:24;;;;;;;17.40;2.55;;;;;;;23.44;68.67;100722.19;4735966;30;20067;-70
2022/07/25 09:26:51;;;;;;;5.55;2.00;;;;;;;23.46;67.81;100722.72;4725063;30;20041;-72
2022/07/25 09:29:19;;;;;;;7.20;1.83;;;;;;;23.46;66.57;100719.94;4736174;30;20107;-70
2022/07/25 09:31:44;;;;;;;10.65;2.13;;;;;;;23.44;67.28;100733.22;4736275;30;20041;-71
2022/07/25 09:34:11;;;;;;;6.03;1.63;;;;;;;23.51;64.78;100733.59;4736250;30;20090;-71
2022/07/25 09:36:42;;;;;;;5.85;1.90;;;;;;;23.43;65.06;100739.91;4735978;30;20115;-71
2022/07/25 09:39:07;;;;;;;6.22;2.15;;;;;;;23.46;63.67;100738.44;4718526;30;20102;-70
2022/07/25 09:41:35;;;;;;;8.48;2.30;;;;;;;23.43;63.37;100739.91;4704168;30;20041;-72
2022/07/25 09:44:00;;;;;;;5.07;2.10;;;;;;;23.47;63.82;100751.94;4735716;30;20413;-73
2022/07/25 09:46:31;;;;;;;6.10;2.17;;;;;;;23.50;64.31;100756.03;4735664;30;20036;-73
2022/07/25 09:48:57;;;;;;;5.65;2.30;;;;;;;23.49;64.72;100748.84;4733809;30;20128;-73
2022/07/25 09:51:27;;;;;;;7.38;1.98;;;;;;;23.50;65.13;100744.97;4734682;30;20090;-71
2022/07/25 09:53:52;;;;;;;9.68;2.25;;;;;;;23.47;65.22;100756.66;4729180;30;20040;-72
2022/07/25 09:56:17;;;;;;;9.63;2.42;;;;;;;23.44;65.33;100747.03;4735434;30;20058;-72
2022/07/25 09:58:42;;;;;;;10.77;2.28;;;;;;;23.56;65.78;100752.00;4735101;30;20156;-72
2022/07/25 10:01:08;;;;;;;9.57;2.30;;;;;;;23.68;64.14;100751.41;4732721;30;20099;-73
2022/07/25 10:04:03;;;;;;;9.13;2.75;;;;;;;23.68;64.67;100754.19;4733917;30;20036;-73
2022/07/25 10:06:39;;;;;;;7.38;2.08;;;;;;;23.69;64.01;100753.88;4709298;30;20049;-72
2022/07/25 10:09:12;;;;;;;9.07;2.25;;;;;;;23.80;63.96;100748.88;4718272;30;20029;-73
2022/07/25 10:11:37;;;;;;;5.80;1.83;;;;;;;23.87;61.55;100763.09;4720307;30;20037;-72
2022/07/25 10:14:10;;;;;;;7.45;2.22;;;;;;;23.94;61.74;100765.38;4734807;30;20424;-71
2022/07/25 10:16:45;;;;;;;8.40;2.40;;;;;;;24.01;61.96;100768.53;4733974;30;20029;-70
2022/07/25 10:19:11;;;;;;;7.97;2.20;;;;;;;24.09;62.64;100758.63;4735244;30;20029;-72
2022/07/25 10:21:36;;;;;;;6.95;1.98;;;;;;;24.06;61.07;100757.34;4735195;30;20033;-73
2022/07/25 10:24:03;;;;;;;5.28;2.13;;;;;;;24.05;61.29;100739.13;4711268;30;20529;-70
2022/07/25 10:26:29;;;;;;;7.07;2.00;;;;;;;24.15;61.38;100751.03;4724820;30;20490;-72
2022/07/25 10:28:55;;;;;;;8.30;2.30;;;;;;;24.31;61.29;100740.34;4734083;30;20037;-71
2022/07/25 10:31:32;;;;;;;10.65;2.78;;;;;;;24.47;61.39;100749.00;4734197;30;20032;-72
2022/07/25 10:34:00;;;;;;;10.35;2.60;;;;;;;24.46;57.74;100753.72;4735361;30;20061;-71
2022/07/25 10:36:40;;;;;;;5.97;1.95;;;;;;;24.53;58.27;100764.31;4731674;30;20102;-72
2022/07/25 10:39:08;;;;;;;4.43;1.80;;;;;;;24.59;57.81;100769.41;4728360;30;20416;-72
2022/07/25 10:41:38;;;;;;;6.00;2.00;;;;;;;24.55;56.58;100771.16;4734043;30;20373;-72
2022/07/25 10:44:03;;;;;;;7.97;1.93;;;;;;;24.62;57.07;100772.66;4733305;30;20047;-73
2022/07/25 10:46:29;;;;;;;5.95;2.00;;;;;;;24.55;56.74;100770.34;4734769;30;20025;-71
2022/07/25 10:49:00;;;;;;;9.13;2.35;;;;;;;24.53;57.35;100775.38;4734864;30;20028;-72
2022/07/25 10:51:29;;;;;;;3.40;1.70;;;;;;;24.52;56.78;100774.56;4733480;30;20021;-74
2022/07/25 10:53:55;;;;;;;7.22;2.20;;;;;;;24.67;58.05;100775.25;4731397;30;20028;-72
2022/07/25 10:56:26;;;;;;;4.07;1.80;;;;;;;24.79;57.32;100771.88;4726323;30;20036;-72
2022/07/25 10:59:00;;;;;;;14.15;2.50;;;;;;;24.83;56.48;100779.19;4729660;30;20059;-72
2022/07/25 11:01:30;;;;;;;6.38;2.20;;;;;;;24.84;56.70;100775.31;4719855;30;20481;-73
2022/07/25 11:04:04;;;;;;;7.00;1.90;;;;;;;24.84;56.89;100786.38;4733416;30;20079;-73
2022/07/25 11:06:33;;;;;;;6.00;2.25;;;;;;;24.74;56.62;100770.06;4730112;30;20094;-75
2022/07/25 11:09:00;;;;;;;9.05;2.45;;;;;;;24.62;56.58;100784.53;4731838;30;20037;-74
2022/07/25 11:11:36;;;;;;;13.82;2.85;;;;;;;24.58;56.32;100794.63;4734567;30;20037;-75
2022/07/25 11:14:03;;;;;;;8.20;3.17;;;;;;;24.52;56.64;100784.81;4734822;30;20059;-76
2022/07/25 11:16:29;;;;;;;6.65;3.20;;;;;;;24.48;56.34;100783.84;4718754;30;20036;-74
2022/07/25 11:18:54;;;;;;;7.65;2.95;;;;;;;24.47;56.00;100787.72;4731361;30;20355;-74
2022/07/25 11:21:20;;;;;;;8.30;2.72;;;;;;;24.54;57.11;100791.66;4734432;30;20123;-74
2022/07/25 11:23:52;;;;;;;6.03;2.63;;;;;;;24.57;56.56;100785.47;4718693;30;20493;-75
2022/07/25 11:26:17;;;;;;;7.47;2.75;;;;;;;24.55;56.65;100800.78;4718627;30;20056;-74
2022/07/25 11:28:45;;;;;;;7.55;3.22;;;;;;;24.40;55.98;100793.75;4733001;30;20477;-76
2022/07/25 11:31:13;;;;;;;8.55;2.88;;;;;;;24.30;56.81;100800.34;4731268;30;20427;-75